sensor_id;sensor_type;location;lat;lon;timestamp;P1;durP1;ratioP1;P2;durP2;ratioP2
37847;SDS011;23688;33.130;-117.188;2023-07-20T00:01:26;19.23;;;5.68;;
37847;SDS011;23688;33.130;-117.188;2023-07-20T00:03:52;15.95;;;5.65;;
37847;SDS011;23688;33.130;-117.188;2023-07-20T00:06:21;21.52;;;7.00;;
37847;SDS011;23688;33.130;-117.188;2023-07-20T00:08:50;14.38;;;5.65;;
37847;SDS011;23688;33.130;-117.188;2023-07-20T00:11:17;18.27;;;5.63;;
37847;SDS011;23688;33.130;-117.188;2023-07-20T00:13:43;20.50;;;5.80;;
37847;SDS011;23688;33.130;-117.188;2023-07-20T00:16:12;15.23;;;6.15;;
37847;SDS011;23688;33.130;-117.188;2023-07-20T00:18:39;13.13;;;5.72;;
37847;SDS011;23688;33.130;-117.188;2023-07-20T00:21:05;14.45;;;6.35;;
37847;SDS011;23688;33.130;-117.188;2023-07-20T00:23:31;16.40;;;5.55;;
37847;SDS011;23688;33.130;-117.188;2023-07-20T00:25:57;13.32;;;6.05;;
37847;SDS011;23688;33.130;-117.188;2023-07-20T00:28:24;13.77;;;6.30;;
37847;SDS011;23688;33.130;-117.188;2023-07-20T00:30:50;13.07;;;6.15;;
37847;SDS011;23688;33.130;-117.188;2023-07-20T00:33:16;15.30;;;5.82;;
37847;SDS011;23688;33.130;-117.188;2023-07-20T00:35:44;20.40;;;6.10;;
37847;SDS011;23688;33.130;-117.188;2023-07-20T00:38:10;18.00;;;6.53;;
37847;SDS011;23688;33.130;-117.188;2023-07-20T00:40:40;14.68;;;5.97;;
37847;SDS011;23688;33.130;-117.188;2023-07-20T00:43:07;15.98;;;5.90;;
37847;SDS011;23688;33.130;-117.188;2023-07-20T00:45:34;12.63;;;5.50;;
37847;SDS011;23688;33.130;-117.188;2023-07-20T00:48:03;12.80;;;6.10;;
37847;SDS011;23688;33.130;-117.188;2023-07-20T00:50:31;19.08;;;6.38;;
37847;SDS011;23688;33.130;-117.188;2023-07-20T00:52:59;15.27;;;5.53;;
37847;SDS011;23688;33.130;-117.188;2023-07-20T00:55:25;14.55;;;5.82;;
37847;SDS011;23688;33.130;-117.188;2023-07-20T00:57:53;15.93;;;5.45;;
37847;SDS011;23688;33.130;-117.188;2023-07-20T01:00:20;15.20;;;5.70;;
37847;SDS011;23688;33.130;-117.188;2023-07-20T01:02:46;14.10;;;6.10;;
37847;SDS011;23688;33.130;-117.188;2023-07-20T01:05:13;18.67;;;6.75;;
37847;SDS011;23688;33.130;-117.188;2023-07-20T01:07:57;11.45;;;5.53;;
37847;SDS011;23688;33.130;-117.188;2023-07-20T01:10:39;18.00;;;5.82;;
37847;SDS011;23688;33.130;-117.188;2023-07-20T01:13:10;14.48;;;5.88;;
37847;SDS011;23688;33.130;-117.188;2023-07-20T01:15:39;15.65;;;5.68;;
37847;SDS011;23688;33.130;-117.188;2023-07-20T01:18:06;13.93;;;5.65;;
37847;SDS011;23688;33.130;-117.188;2023-07-20T01:20:32;15.68;;;5.93;;
37847;SDS011;23688;33.130;-117.188;2023-07-20T01:31:33;17.25;;;5.28;;
37847;SDS011;23688;33.130;-117.188;2023-07-20T01:34:02;14.45;;;6.00;;
37847;SDS011;23688;33.130;-117.188;2023-07-20T01:36:30;13.27;;;6.13;;
37847;SDS011;23688;33.130;-117.188;2023-07-20T01:39:00;20.95;;;6.60;;
37847;SDS011;23688;33.130;-117.188;2023-07-20T01:41:27;15.73;;;6.72;;
37847;SDS011;23688;33.130;-117.188;2023-07-20T01:43:57;15.13;;;6.95;;
37847;SDS011;23688;33.130;-117.188;2023-07-20T01:46:24;17.35;;;6.95;;
37847;SDS011;23688;33.130;-117.188;2023-07-20T01:48:51;21.73;;;7.43;;
37847;SDS011;23688;33.130;-117.188;2023-07-20T01:51:18;16.85;;;7.50;;
37847;SDS011;23688;33.130;-117.188;2023-07-20T01:53:44;20.23;;;7.95;;
37847;SDS011;23688;33.130;-117.188;2023-07-20T01:56:10;18.33;;;7.45;;
37847;SDS011;23688;33.130;-117.188;2023-07-20T01:58:37;18.00;;;6.63;;
37847;SDS011;23688;33.130;-117.188;2023-07-20T02:01:04;16.17;;;7.57;;
37847;SDS011;23688;33.130;-117.188;2023-07-20T02:03:30;18.20;;;7.20;;
37847;SDS011;23688;33.130;-117.188;2023-07-20T02:05:57;15.07;;;7.13;;
37847;SDS011;23688;33.130;-117.188;2023-07-20T02:08:24;18.27;;;6.95;;
37847;SDS011;23688;33.130;-117.188;2023-07-20T02:10:50;19.15;;;8.60;;
37847;SDS011;23688;33.130;-117.188;2023-07-20T02:13:17;16.23;;;7.18;;
37847;SDS011;23688;33.130;-117.188;2023-07-20T02:15:44;17.65;;;7.70;;
37847;SDS011;23688;33.130;-117.188;2023-07-20T02:18:12;18.33;;;7.88;;
37847;SDS011;23688;33.130;-117.188;2023-07-20T02:20:40;18.65;;;7.20;;
37847;SDS011;23688;33.130;-117.188;2023-07-20T02:23:07;17.08;;;7.60;;
37847;SDS011;23688;33.130;-117.188;2023-07-20T02:25:34;13.48;;;6.57;;
37847;SDS011;23688;33.130;-117.188;2023-07-20T02:28:00;20.60;;;7.22;;
37847;SDS011;23688;33.130;-117.188;2023-07-20T02:32:54;17.92;;;7.20;;
37847;SDS011;23688;33.130;-117.188;2023-07-20T02:35:23;17.73;;;7.57;;
37847;SDS011;23688;33.130;-117.188;2023-07-20T02:37:50;15.48;;;7.47;;
37847;SDS011;23688;33.130;-117.188;2023-07-20T02:40:16;18.80;;;7.30;;
37847;SDS011;23688;33.130;-117.188;2023-07-20T02:42:42;16.67;;;7.38;;
37847;SDS011;23688;33.130;-117.188;2023-07-20T02:45:09;17.02;;;7.47;;
37847;SDS011;23688;33.130;-117.188;2023-07-20T02:47:35;18.00;;;7.45;;
37847;SDS011;23688;33.130;-117.188;2023-07-20T02:50:02;17.33;;;8.45;;
37847;SDS011;23688;33.130;-117.188;2023-07-20T02:52:29;21.27;;;8.48;;
37847;SDS011;23688;33.130;-117.188;2023-07-20T02:57:23;22.50;;;8.35;;
37847;SDS011;23688;33.130;-117.188;2023-07-20T02:59:49;20.50;;;8.02;;
37847;SDS011;23688;33.130;-117.188;2023-07-20T03:02:16;21.02;;;8.30;;
37847;SDS011;23688;33.130;-117.188;2023-07-20T03:04:42;17.40;;;8.25;;
37847;SDS011;23688;33.130;-117.188;2023-07-20T03:07:08;19.13;;;9.27;;
37847;SDS011;23688;33.130;-117.188;2023-07-20T03:09:35;17.80;;;8.98;;
37847;SDS011;23688;33.130;-117.188;2023-07-20T03:12:01;15.73;;;7.72;;
37847;SDS011;23688;33.130;-117.188;2023-07-20T03:14:29;21.38;;;8.70;;
37847;SDS011;23688;33.130;-117.188;2023-07-20T03:16:56;16.67;;;8.13;;
37847;SDS011;23688;33.130;-117.188;2023-07-20T03:19:22;19.85;;;8.90;;
37847;SDS011;23688;33.130;-117.188;2023-07-20T03:21:49;20.35;;;9.15;;
37847;SDS011;23688;33.130;-117.188;2023-07-20T03:24:17;23.48;;;9.70;;
37847;SDS011;23688;33.130;-117.188;2023-07-20T03:26:43;27.70;;;10.57;;
37847;SDS011;23688;33.130;-117.188;2023-07-20T03:29:09;23.90;;;9.15;;
37847;SDS011;23688;33.130;-117.188;2023-07-20T03:31:36;27.90;;;11.65;;
37847;SDS011;23688;33.130;-117.188;2023-07-20T03:34:02;26.75;;;10.27;;
37847;SDS011;23688;33.130;-117.188;2023-07-20T03:36:29;22.95;;;10.07;;
37847;SDS011;23688;33.130;-117.188;2023-07-20T03:38:56;22.33;;;9.73;;
37847;SDS011;23688;33.130;-117.188;2023-07-20T03:41:23;26.30;;;11.10;;
37847;SDS011;23688;33.130;-117.188;2023-07-20T03:43:49;28.02;;;10.95;;
37847;SDS011;23688;33.130;-117.188;2023-07-20T03:46:15;32.88;;;11.13;;
37847;SDS011;23688;33.130;-117.188;2023-07-20T03:48:42;25.92;;;10.80;;
37847;SDS011;23688;33.130;-117.188;2023-07-20T03:51:08;27.95;;;11.57;;
37847;SDS011;23688;33.130;-117.188;2023-07-20T03:53:35;34.33;;;12.57;;
37847;SDS011;23688;33.130;-117.188;2023-07-20T03:56:01;29.35;;;11.68;;
37847;SDS011;23688;33.130;-117.188;2023-07-20T03:58:28;26.10;;;11.02;;
37847;SDS011;23688;33.130;-117.188;2023-07-20T04:00:55;31.23;;;11.02;;
37847;SDS011;23688;33.130;-117.188;2023-07-20T04:03:23;23.73;;;11.45;;
37847;SDS011;23688;33.130;-117.188;2023-07-20T04:05:53;22.30;;;11.02;;
37847;SDS011;23688;33.130;-117.188;2023-07-20T04:08:22;32.10;;;12.18;;
37847;SDS011;23688;33.130;-117.188;2023-07-20T04:10:52;31.05;;;13.35;;
37847;SDS011;23688;33.130;-117.188;2023-07-20T04:13:18;29.15;;;12.05;;
37847;SDS011;23688;33.130;-117.188;2023-07-20T04:15:45;30.77;;;12.18;;
37847;SDS011;23688;33.130;-117.188;2023-07-20T04:18:11;27.40;;;12.30;;
37847;SDS011;23688;33.130;-117.188;2023-07-20T04:20:38;36.03;;;12.98;;
37847;SDS011;23688;33.130;-117.188;2023-07-20T04:23:04;40.83;;;13.75;;
37847;SDS011;23688;33.130;-117.188;2023-07-20T04:25:31;30.20;;;12.05;;
37847;SDS011;23688;33.130;-117.188;2023-07-20T04:28:04;35.05;;;13.18;;
37847;SDS011;23688;33.130;-117.188;2023-07-20T04:30:34;32.38;;;12.02;;
37847;SDS011;23688;33.130;-117.188;2023-07-20T04:33:07;32.78;;;13.77;;
37847;SDS011;23688;33.130;-117.188;2023-07-20T04:35:50;31.00;;;12.20;;
37847;SDS011;23688;33.130;-117.188;2023-07-20T04:38:22;23.42;;;10.75;;
37847;SDS011;23688;33.130;-117.188;2023-07-20T04:40:49;26.02;;;11.40;;
37847;SDS011;23688;33.130;-117.188;2023-07-20T04:43:16;27.88;;;11.77;;
37847;SDS011;23688;33.130;-117.188;2023-07-20T04:45:43;24.88;;;10.52;;
37847;SDS011;23688;33.130;-117.188;2023-07-20T04:48:10;27.13;;;11.15;;
37847;SDS011;23688;33.130;-117.188;2023-07-20T04:50:40;27.30;;;11.60;;
37847;SDS011;23688;33.130;-117.188;2023-07-20T04:53:08;24.42;;;11.38;;
37847;SDS011;23688;33.130;-117.188;2023-07-20T04:55:35;32.75;;;12.45;;
37847;SDS011;23688;33.130;-117.188;2023-07-20T04:58:02;26.33;;;11.40;;
37847;SDS011;23688;33.130;-117.188;2023-07-20T05:00:29;23.40;;;10.60;;
37847;SDS011;23688;33.130;-117.188;2023-07-20T05:02:56;26.00;;;11.95;;
37847;SDS011;23688;33.130;-117.188;2023-07-20T05:05:22;29.13;;;12.20;;
37847;SDS011;23688;33.130;-117.188;2023-07-20T05:07:48;24.63;;;10.23;;
37847;SDS011;23688;33.130;-117.188;2023-07-20T05:10:14;24.38;;;10.40;;
37847;SDS011;23688;33.130;-117.188;2023-07-20T05:12:41;30.85;;;11.10;;
37847;SDS011;23688;33.130;-117.188;2023-07-20T05:15:07;23.80;;;10.07;;
37847;SDS011;23688;33.130;-117.188;2023-07-20T05:17:34;23.27;;;10.57;;
37847;SDS011;23688;33.130;-117.188;2023-07-20T05:20:00;22.83;;;9.88;;
37847;SDS011;23688;33.130;-117.188;2023-07-20T05:22:27;23.05;;;10.38;;
37847;SDS011;23688;33.130;-117.188;2023-07-20T05:24:53;22.65;;;10.35;;
37847;SDS011;23688;33.130;-117.188;2023-07-20T05:27:19;23.38;;;11.18;;
37847;SDS011;23688;33.130;-117.188;2023-07-20T05:29:46;23.88;;;10.15;;
37847;SDS011;23688;33.130;-117.188;2023-07-20T05:32:13;22.65;;;10.35;;
37847;SDS011;23688;33.130;-117.188;2023-07-20T05:34:40;25.52;;;10.50;;
37847;SDS011;23688;33.130;-117.188;2023-07-20T05:37:06;24.17;;;10.00;;
37847;SDS011;23688;33.130;-117.188;2023-07-20T05:39:32;22.58;;;10.25;;
37847;SDS011;23688;33.130;-117.188;2023-07-20T05:41:59;22.88;;;10.02;;
37847;SDS011;23688;33.130;-117.188;2023-07-20T05:44:25;17.38;;;7.75;;
37847;SDS011;23688;33.130;-117.188;2023-07-20T05:46:51;15.25;;;7.97;;
37847;SDS011;23688;33.130;-117.188;2023-07-20T05:49:20;19.17;;;7.50;;
37847;SDS011;23688;33.130;-117.188;2023-07-20T05:54:13;18.23;;;7.45;;
37847;SDS011;23688;33.130;-117.188;2023-07-20T05:56:39;16.00;;;7.35;;
37847;SDS011;23688;33.130;-117.188;2023-07-20T05:59:06;19.98;;;7.57;;
37847;SDS011;23688;33.130;-117.188;2023-07-20T06:01:32;14.70;;;7.88;;
37847;SDS011;23688;33.130;-117.188;2023-07-20T06:03:58;20.05;;;7.22;;
37847;SDS011;23688;33.130;-117.188;2023-07-20T06:06:24;19.42;;;7.72;;
37847;SDS011;23688;33.130;-117.188;2023-07-20T06:08:51;18.55;;;7.55;;
37847;SDS011;23688;33.130;-117.188;2023-07-20T06:11:17;17.92;;;8.60;;
37847;SDS011;23688;33.130;-117.188;2023-07-20T06:13:43;17.02;;;7.70;;
37847;SDS011;23688;33.130;-117.188;2023-07-20T06:16:09;20.55;;;7.78;;
37847;SDS011;23688;33.130;-117.188;2023-07-20T06:18:36;13.32;;;7.43;;
37847;SDS011;23688;33.130;-117.188;2023-07-20T06:21:02;16.67;;;7.82;;
37847;SDS011;23688;33.130;-117.188;2023-07-20T06:23:28;13.10;;;6.07;;
37847;SDS011;23688;33.130;-117.188;2023-07-20T06:25:55;11.98;;;6.00;;
37847;SDS011;23688;33.130;-117.188;2023-07-20T06:28:21;12.25;;;5.30;;
37847;SDS011;23688;33.130;-117.188;2023-07-20T06:30:47;10.85;;;5.38;;
37847;SDS011;23688;33.130;-117.188;2023-07-20T06:33:14;10.98;;;5.63;;
37847;SDS011;23688;33.130;-117.188;2023-07-20T06:35:43;11.10;;;5.18;;
37847;SDS011;23688;33.130;-117.188;2023-07-20T06:38:09;7.93;;;5.43;;
37847;SDS011;23688;33.130;-117.188;2023-07-20T06:40:36;10.70;;;4.95;;
37847;SDS011;23688;33.130;-117.188;2023-07-20T06:43:02;12.88;;;5.18;;
37847;SDS011;23688;33.130;-117.188;2023-07-20T06:45:28;8.73;;;4.60;;
37847;SDS011;23688;33.130;-117.188;2023-07-20T06:47:55;9.15;;;4.47;;
37847;SDS011;23688;33.130;-117.188;2023-07-20T06:50:22;9.95;;;4.28;;
37847;SDS011;23688;33.130;-117.188;2023-07-20T06:52:48;10.50;;;3.88;;
37847;SDS011;23688;33.130;-117.188;2023-07-20T06:55:14;9.90;;;3.70;;
37847;SDS011;23688;33.130;-117.188;2023-07-20T06:57:41;9.35;;;3.25;;
37847;SDS011;23688;33.130;-117.188;2023-07-20T07:00:07;6.30;;;2.92;;
37847;SDS011;23688;33.130;-117.188;2023-07-20T07:02:34;6.50;;;3.10;;
37847;SDS011;23688;33.130;-117.188;2023-07-20T07:05:00;6.07;;;3.38;;
37847;SDS011;23688;33.130;-117.188;2023-07-20T07:07:27;8.98;;;3.20;;
37847;SDS011;23688;33.130;-117.188;2023-07-20T07:09:53;6.80;;;3.08;;
37847;SDS011;23688;33.130;-117.188;2023-07-20T07:12:19;6.57;;;2.58;;
37847;SDS011;23688;33.130;-117.188;2023-07-20T07:14:46;5.20;;;3.25;;
37847;SDS011;23688;33.130;-117.188;2023-07-20T07:17:12;4.13;;;2.50;;
37847;SDS011;23688;33.130;-117.188;2023-07-20T07:19:38;8.10;;;2.83;;
37847;SDS011;23688;33.130;-117.188;2023-07-20T07:22:06;9.20;;;3.47;;
37847;SDS011;23688;33.130;-117.188;2023-07-20T07:24:34;6.93;;;3.45;;
37847;SDS011;23688;33.130;-117.188;2023-07-20T07:27:02;8.35;;;3.20;;
37847;SDS011;23688;33.130;-117.188;2023-07-20T07:29:29;7.05;;;3.20;;
37847;SDS011;23688;33.130;-117.188;2023-07-20T07:31:55;10.13;;;3.53;;
37847;SDS011;23688;33.130;-117.188;2023-07-20T07:34:21;6.57;;;2.85;;
37847;SDS011;23688;33.130;-117.188;2023-07-20T07:36:48;7.88;;;3.33;;
37847;SDS011;23688;33.130;-117.188;2023-07-20T07:39:15;7.32;;;3.95;;
37847;SDS011;23688;33.130;-117.188;2023-07-20T07:41:44;7.93;;;3.75;;
37847;SDS011;23688;33.130;-117.188;2023-07-20T07:46:36;9.18;;;3.95;;
37847;SDS011;23688;33.130;-117.188;2023-07-20T07:49:02;9.48;;;4.40;;
37847;SDS011;23688;33.130;-117.188;2023-07-20T07:51:29;9.45;;;4.07;;
37847;SDS011;23688;33.130;-117.188;2023-07-20T07:53:55;9.45;;;4.68;;
37847;SDS011;23688;33.130;-117.188;2023-07-20T07:56:21;12.35;;;5.40;;
37847;SDS011;23688;33.130;-117.188;2023-07-20T07:58:48;9.23;;;4.80;;
37847;SDS011;23688;33.130;-117.188;2023-07-20T08:01:17;13.10;;;5.03;;
37847;SDS011;23688;33.130;-117.188;2023-07-20T08:03:46;14.30;;;5.28;;
37847;SDS011;23688;33.130;-117.188;2023-07-20T08:06:13;10.68;;;4.50;;
37847;SDS011;23688;33.130;-117.188;2023-07-20T08:08:40;10.82;;;5.18;;
37847;SDS011;23688;33.130;-117.188;2023-07-20T08:11:06;14.00;;;5.20;;
37847;SDS011;23688;33.130;-117.188;2023-07-20T08:13:32;12.68;;;5.60;;
37847;SDS011;23688;33.130;-117.188;2023-07-20T08:15:58;12.68;;;6.72;;
37847;SDS011;23688;33.130;-117.188;2023-07-20T08:18:25;14.70;;;6.22;;
37847;SDS011;23688;33.130;-117.188;2023-07-20T08:20:51;18.58;;;7.10;;
37847;SDS011;23688;33.130;-117.188;2023-07-20T08:23:17;15.32;;;7.80;;
37847;SDS011;23688;33.130;-117.188;2023-07-20T08:25:44;17.88;;;7.72;;
37847;SDS011;23688;33.130;-117.188;2023-07-20T08:28:16;13.18;;;6.90;;
37847;SDS011;23688;33.130;-117.188;2023-07-20T08:30:46;14.43;;;7.20;;
37847;SDS011;23688;33.130;-117.188;2023-07-20T08:33:13;15.32;;;6.88;;
37847;SDS011;23688;33.130;-117.188;2023-07-20T08:35:41;20.17;;;7.85;;
37847;SDS011;23688;33.130;-117.188;2023-07-20T08:38:08;13.73;;;6.75;;
37847;SDS011;23688;33.130;-117.188;2023-07-20T08:40:39;22.00;;;7.78;;
37847;SDS011;23688;33.130;-117.188;2023-07-20T08:43:07;21.05;;;7.72;;
37847;SDS011;23688;33.130;-117.188;2023-07-20T08:45:34;13.00;;;7.35;;
37847;SDS011;23688;33.130;-117.188;2023-07-20T08:48:02;17.50;;;8.03;;
37847;SDS011;23688;33.130;-117.188;2023-07-20T08:50:30;18.35;;;7.63;;
37847;SDS011;23688;33.130;-117.188;2023-07-20T08:52:58;15.07;;;8.15;;
37847;SDS011;23688;33.130;-117.188;2023-07-20T08:55:26;18.83;;;9.20;;
37847;SDS011;23688;33.130;-117.188;2023-07-20T08:57:53;18.00;;;8.05;;
37847;SDS011;23688;33.130;-117.188;2023-07-20T09:00:21;24.27;;;9.27;;
37847;SDS011;23688;33.130;-117.188;2023-07-20T09:02:49;17.63;;;8.48;;
37847;SDS011;23688;33.130;-117.188;2023-07-20T09:07:43;19.02;;;9.02;;
37847;SDS011;23688;33.130;-117.188;2023-07-20T09:10:10;19.67;;;8.43;;
37847;SDS011;23688;33.130;-117.188;2023-07-20T09:12:37;13.68;;;7.88;;
37847;SDS011;23688;33.130;-117.188;2023-07-20T09:15:09;16.40;;;8.65;;
37847;SDS011;23688;33.130;-117.188;2023-07-20T09:17:36;24.27;;;9.38;;
37847;SDS011;23688;33.130;-117.188;2023-07-20T09:20:04;25.50;;;9.13;;
37847;SDS011;23688;33.130;-117.188;2023-07-20T09:22:34;26.80;;;10.07;;
37847;SDS011;23688;33.130;-117.188;2023-07-20T09:25:00;26.52;;;9.40;;
37847;SDS011;23688;33.130;-117.188;2023-07-20T09:27:40;21.00;;;10.00;;
37847;SDS011;23688;33.130;-117.188;2023-07-20T09:30:10;19.20;;;8.52;;
37847;SDS011;23688;33.130;-117.188;2023-07-20T09:32:40;16.30;;;8.30;;
37847;SDS011;23688;33.130;-117.188;2023-07-20T09:35:22;22.83;;;9.95;;
37847;SDS011;23688;33.130;-117.188;2023-07-20T09:37:57;21.38;;;9.38;;
37847;SDS011;23688;33.130;-117.188;2023-07-20T09:40:25;25.23;;;10.98;;
37847;SDS011;23688;33.130;-117.188;2023-07-20T09:42:53;18.17;;;9.23;;
37847;SDS011;23688;33.130;-117.188;2023-07-20T09:45:35;17.25;;;8.45;;
37847;SDS011;23688;33.130;-117.188;2023-07-20T09:48:07;22.40;;;10.35;;
37847;SDS011;23688;33.130;-117.188;2023-07-20T09:50:39;22.33;;;9.77;;
37847;SDS011;23688;33.130;-117.188;2023-07-20T09:53:14;21.90;;;8.90;;
37847;SDS011;23688;33.130;-117.188;2023-07-20T09:55:46;18.08;;;8.88;;
37847;SDS011;23688;33.130;-117.188;2023-07-20T09:58:14;21.42;;;10.52;;
37847;SDS011;23688;33.130;-117.188;2023-07-20T10:00:41;21.77;;;9.67;;
37847;SDS011;23688;33.130;-117.188;2023-07-20T10:03:10;18.45;;;9.93;;
37847;SDS011;23688;33.130;-117.188;2023-07-20T10:05:46;23.40;;;11.35;;
37847;SDS011;23688;33.130;-117.188;2023-07-20T10:08:25;22.25;;;11.93;;
37847;SDS011;23688;33.130;-117.188;2023-07-20T10:13:21;23.60;;;9.90;;
37847;SDS011;23688;33.130;-117.188;2023-07-20T10:15:59;24.65;;;10.82;;
37847;SDS011;23688;33.130;-117.188;2023-07-20T10:21:16;21.08;;;9.70;;
37847;SDS011;23688;33.130;-117.188;2023-07-20T10:23:45;18.27;;;9.52;;
37847;SDS011;23688;33.130;-117.188;2023-07-20T10:26:12;23.33;;;11.32;;
37847;SDS011;23688;33.130;-117.188;2023-07-20T10:28:39;27.48;;;11.88;;
37847;SDS011;23688;33.130;-117.188;2023-07-20T10:31:09;25.70;;;12.43;;
37847;SDS011;23688;33.130;-117.188;2023-07-20T10:33:38;30.45;;;11.32;;
37847;SDS011;23688;33.130;-117.188;2023-07-20T10:36:06;23.42;;;11.32;;
37847;SDS011;23688;33.130;-117.188;2023-07-20T10:41:18;24.42;;;12.23;;
37847;SDS011;23688;33.130;-117.188;2023-07-20T10:43:46;26.60;;;11.75;;
37847;SDS011;23688;33.130;-117.188;2023-07-20T10:46:13;24.27;;;12.23;;
37847;SDS011;23688;33.130;-117.188;2023-07-20T10:48:59;24.52;;;11.95;;
37847;SDS011;23688;33.130;-117.188;2023-07-20T10:51:29;27.17;;;12.05;;
37847;SDS011;23688;33.130;-117.188;2023-07-20T10:54:07;32.03;;;12.27;;
37847;SDS011;23688;33.130;-117.188;2023-07-20T10:56:43;30.02;;;13.35;;
37847;SDS011;23688;33.130;-117.188;2023-07-20T11:01:59;34.50;;;14.73;;
37847;SDS011;23688;33.130;-117.188;2023-07-20T11:07:07;31.88;;;13.05;;
37847;SDS011;23688;33.130;-117.188;2023-07-20T11:09:34;23.13;;;13.15;;
37847;SDS011;23688;33.130;-117.188;2023-07-20T11:12:09;25.63;;;13.13;;
37847;SDS011;23688;33.130;-117.188;2023-07-20T11:14:57;23.20;;;11.88;;
37847;SDS011;23688;33.130;-117.188;2023-07-20T11:17:30;29.88;;;12.88;;
37847;SDS011;23688;33.130;-117.188;2023-07-20T11:19:58;21.40;;;12.13;;
37847;SDS011;23688;33.130;-117.188;2023-07-20T11:22:30;26.13;;;12.35;;
37847;SDS011;23688;33.130;-117.188;2023-07-20T11:24:57;26.95;;;11.70;;
37847;SDS011;23688;33.130;-117.188;2023-07-20T11:27:24;25.08;;;12.20;;
37847;SDS011;23688;33.130;-117.188;2023-07-20T11:29:50;28.80;;;11.95;;
37847;SDS011;23688;33.130;-117.188;2023-07-20T11:32:20;33.08;;;12.00;;
37847;SDS011;23688;33.130;-117.188;2023-07-20T11:34:47;21.63;;;13.27;;
37847;SDS011;23688;33.130;-117.188;2023-07-20T11:37:14;25.75;;;13.20;;
37847;SDS011;23688;33.130;-117.188;2023-07-20T11:39:41;25.13;;;13.07;;
37847;SDS011;23688;33.130;-117.188;2023-07-20T11:42:07;26.75;;;12.32;;
37847;SDS011;23688;33.130;-117.188;2023-07-20T11:44:34;29.45;;;12.60;;
37847;SDS011;23688;33.130;-117.188;2023-07-20T11:49:30;21.85;;;11.57;;
37847;SDS011;23688;33.130;-117.188;2023-07-20T11:52:08;30.92;;;12.50;;
37847;SDS011;23688;33.130;-117.188;2023-07-20T11:54:40;24.50;;;12.48;;
37847;SDS011;23688;33.130;-117.188;2023-07-20T11:57:17;21.75;;;12.50;;
37847;SDS011;23688;33.130;-117.188;2023-07-20T11:59:58;29.60;;;12.85;;
37847;SDS011;23688;33.130;-117.188;2023-07-20T12:02:34;25.33;;;12.63;;
37847;SDS011;23688;33.130;-117.188;2023-07-20T12:05:02;31.10;;;14.38;;
37847;SDS011;23688;33.130;-117.188;2023-07-20T12:07:29;33.38;;;14.13;;
37847;SDS011;23688;33.130;-117.188;2023-07-20T12:10:11;26.83;;;12.73;;
37847;SDS011;23688;33.130;-117.188;2023-07-20T12:12:38;27.08;;;13.73;;
37847;SDS011;23688;33.130;-117.188;2023-07-20T12:15:13;25.23;;;13.05;;
37847;SDS011;23688;33.130;-117.188;2023-07-20T12:17:46;30.23;;;13.50;;
37847;SDS011;23688;33.130;-117.188;2023-07-20T12:23:10;22.20;;;11.57;;
37847;SDS011;23688;33.130;-117.188;2023-07-20T12:25:44;26.08;;;12.10;;
37847;SDS011;23688;33.130;-117.188;2023-07-20T12:28:13;25.08;;;12.40;;
37847;SDS011;23688;33.130;-117.188;2023-07-20T12:33:07;26.58;;;13.27;;
37847;SDS011;23688;33.130;-117.188;2023-07-20T12:35:34;24.63;;;11.70;;
37847;SDS011;23688;33.130;-117.188;2023-07-20T12:38:00;23.15;;;12.05;;
37847;SDS011;23688;33.130;-117.188;2023-07-20T12:40:26;28.27;;;12.68;;
37847;SDS011;23688;33.130;-117.188;2023-07-20T12:42:53;24.33;;;12.05;;
37847;SDS011;23688;33.130;-117.188;2023-07-20T12:45:22;29.73;;;14.57;;
37847;SDS011;23688;33.130;-117.188;2023-07-20T12:47:49;34.00;;;14.60;;
37847;SDS011;23688;33.130;-117.188;2023-07-20T12:50:15;34.03;;;16.25;;
37847;SDS011;23688;33.130;-117.188;2023-07-20T12:52:42;31.80;;;14.38;;
37847;SDS011;23688;33.130;-117.188;2023-07-20T12:55:11;30.50;;;14.75;;
37847;SDS011;23688;33.130;-117.188;2023-07-20T12:57:37;35.53;;;15.48;;
37847;SDS011;23688;33.130;-117.188;2023-07-20T13:00:04;30.88;;;14.52;;
37847;SDS011;23688;33.130;-117.188;2023-07-20T13:02:33;39.15;;;15.93;;
37847;SDS011;23688;33.130;-117.188;2023-07-20T13:05:00;34.35;;;18.02;;
37847;SDS011;23688;33.130;-117.188;2023-07-20T13:07:29;23.02;;;13.10;;
37847;SDS011;23688;33.130;-117.188;2023-07-20T13:09:58;25.90;;;12.40;;
37847;SDS011;23688;33.130;-117.188;2023-07-20T13:12:29;26.40;;;12.02;;
37847;SDS011;23688;33.130;-117.188;2023-07-20T13:14:56;26.17;;;11.82;;
37847;SDS011;23688;33.130;-117.188;2023-07-20T13:17:26;33.63;;;13.70;;
37847;SDS011;23688;33.130;-117.188;2023-07-20T13:19:53;27.80;;;14.23;;
37847;SDS011;23688;33.130;-117.188;2023-07-20T13:22:20;30.75;;;13.68;;
37847;SDS011;23688;33.130;-117.188;2023-07-20T13:24:46;45.28;;;17.35;;
37847;SDS011;23688;33.130;-117.188;2023-07-20T13:27:16;38.45;;;16.75;;
37847;SDS011;23688;33.130;-117.188;2023-07-20T13:29:43;40.30;;;17.58;;
37847;SDS011;23688;33.130;-117.188;2023-07-20T13:32:12;36.80;;;16.40;;
37847;SDS011;23688;33.130;-117.188;2023-07-20T13:34:43;37.92;;;17.85;;
37847;SDS011;23688;33.130;-117.188;2023-07-20T13:37:10;40.17;;;18.80;;
37847;SDS011;23688;33.130;-117.188;2023-07-20T13:39:37;41.92;;;17.77;;
37847;SDS011;23688;33.130;-117.188;2023-07-20T13:42:04;34.78;;;16.92;;
37847;SDS011;23688;33.130;-117.188;2023-07-20T13:44:31;39.95;;;17.08;;
37847;SDS011;23688;33.130;-117.188;2023-07-20T13:46:58;35.10;;;15.30;;
37847;SDS011;23688;33.130;-117.188;2023-07-20T13:49:25;30.50;;;14.73;;
37847;SDS011;23688;33.130;-117.188;2023-07-20T13:51:51;30.25;;;15.30;;
37847;SDS011;23688;33.130;-117.188;2023-07-20T13:54:18;27.05;;;13.80;;
37847;SDS011;23688;33.130;-117.188;2023-07-20T13:56:44;26.73;;;12.85;;
37847;SDS011;23688;33.130;-117.188;2023-07-20T13:59:10;28.65;;;13.40;;
37847;SDS011;23688;33.130;-117.188;2023-07-20T14:01:37;28.05;;;13.88;;
37847;SDS011;23688;33.130;-117.188;2023-07-20T14:04:03;29.52;;;14.57;;
37847;SDS011;23688;33.130;-117.188;2023-07-20T14:06:30;28.52;;;14.40;;
37847;SDS011;23688;33.130;-117.188;2023-07-20T14:08:57;30.30;;;15.15;;
37847;SDS011;23688;33.130;-117.188;2023-07-20T14:11:24;30.75;;;15.13;;
37847;SDS011;23688;33.130;-117.188;2023-07-20T14:13:52;29.15;;;14.93;;
37847;SDS011;23688;33.130;-117.188;2023-07-20T14:16:19;33.25;;;14.93;;
37847;SDS011;23688;33.130;-117.188;2023-07-20T14:18:48;27.63;;;14.40;;
37847;SDS011;23688;33.130;-117.188;2023-07-20T14:21:16;34.35;;;15.40;;
37847;SDS011;23688;33.130;-117.188;2023-07-20T14:23:46;34.70;;;15.90;;
37847;SDS011;23688;33.130;-117.188;2023-07-20T14:26:15;35.35;;;16.33;;
37847;SDS011;23688;33.130;-117.188;2023-07-20T14:28:41;45.22;;;16.85;;
37847;SDS011;23688;33.130;-117.188;2023-07-20T14:31:07;37.28;;;16.23;;
37847;SDS011;23688;33.130;-117.188;2023-07-20T14:33:34;45.08;;;17.70;;
37847;SDS011;23688;33.130;-117.188;2023-07-20T14:36:01;44.83;;;17.50;;
37847;SDS011;23688;33.130;-117.188;2023-07-20T14:38:28;33.50;;;16.40;;